sensor_id;sensor_type;location;lat;lon;timestamp;temperature;humidity
36856;DHT22;22788;51.434;6.786;2024-03-06T00:00:38;8.90;99.90
36856;DHT22;22788;51.434;6.786;2024-03-06T00:03:03;8.90;99.90
36856;DHT22;22788;51.434;6.786;2024-03-06T00:05:29;8.90;99.90
36856;DHT22;22788;51.434;6.786;2024-03-06T00:07:54;8.90;99.90
36856;DHT22;22788;51.434;6.786;2024-03-06T00:10:20;8.90;99.90
36856;DHT22;22788;51.434;6.786;2024-03-06T00:12:47;8.90;99.90
36856;DHT22;22788;51.434;6.786;2024-03-06T00:15:13;8.80;99.90
36856;DHT22;22788;51.434;6.786;2024-03-06T00:17:38;8.80;99.90
36856;DHT22;22788;51.434;6.786;2024-03-06T00:20:05;8.90;99.90
36856;DHT22;22788;51.434;6.786;2024-03-06T00:22:31;8.80;99.90
36856;DHT22;22788;51.434;6.786;2024-03-06T00:24:56;8.80;99.90
36856;DHT22;22788;51.434;6.786;2024-03-06T00:27:22;8.80;99.90
36856;DHT22;22788;51.434;6.786;2024-03-06T00:29:49;8.80;99.90
36856;DHT22;22788;51.434;6.786;2024-03-06T00:32:14;8.80;99.90
36856;DHT22;22788;51.434;6.786;2024-03-06T00:34:40;8.80;99.90
36856;DHT22;22788;51.434;6.786;2024-03-06T00:37:06;8.70;99.90
36856;DHT22;22788;51.434;6.786;2024-03-06T00:39:31;8.70;99.90
36856;DHT22;22788;51.434;6.786;2024-03-06T00:41:57;8.70;99.90
36856;DHT22;22788;51.434;6.786;2024-03-06T00:44:22;8.70;99.90
36856;DHT22;22788;51.434;6.786;2024-03-06T00:46:49;8.80;99.90
36856;DHT22;22788;51.434;6.786;2024-03-06T00:49:15;8.70;99.90
36856;DHT22;22788;51.434;6.786;2024-03-06T00:51:40;8.70;99.90
36856;DHT22;22788;51.434;6.786;2024-03-06T00:54:06;8.80;99.90
36856;DHT22;22788;51.434;6.786;2024-03-06T00:56:31;8.80;99.90
36856;DHT22;22788;51.434;6.786;2024-03-06T00:58:57;8.80;99.90
36856;DHT22;22788;51.434;6.786;2024-03-06T01:01:23;8.80;99.90
36856;DHT22;22788;51.434;6.786;2024-03-06T01:03:49;8.70;99.90
36856;DHT22;22788;51.434;6.786;2024-03-06T01:06:15;8.70;99.90
36856;DHT22;22788;51.434;6.786;2024-03-06T01:08:41;8.70;99.90
36856;DHT22;22788;51.434;6.786;2024-03-06T01:11:06;8.70;99.90
36856;DHT22;22788;51.434;6.786;2024-03-06T01:13:32;8.70;99.90
36856;DHT22;22788;51.434;6.786;2024-03-06T01:15:57;8.70;99.90
36856;DHT22;22788;51.434;6.786;2024-03-06T01:18:23;8.70;99.90
36856;DHT22;22788;51.434;6.786;2024-03-06T01:20:50;8.70;99.90
36856;DHT22;22788;51.434;6.786;2024-03-06T01:23:15;8.70;99.90
36856;DHT22;22788;51.434;6.786;2024-03-06T01:25:41;8.60;99.90
36856;DHT22;22788;51.434;6.786;2024-03-06T01:28:06;8.70;99.90
36856;DHT22;22788;51.434;6.786;2024-03-06T01:30:32;8.60;99.90
36856;DHT22;22788;51.434;6.786;2024-03-06T01:32:57;8.60;99.90
36856;DHT22;22788;51.434;6.786;2024-03-06T01:35:24;8.60;99.90
36856;DHT22;22788;51.434;6.786;2024-03-06T01:37:51;8.60;99.90
36856;DHT22;22788;51.434;6.786;2024-03-06T01:40:16;8.60;99.90
36856;DHT22;22788;51.434;6.786;2024-03-06T01:42:42;8.60;99.90
36856;DHT22;22788;51.434;6.786;2024-03-06T01:45:09;8.60;99.90
36856;DHT22;22788;51.434;6.786;2024-03-06T01:47:35;8.50;99.90
36856;DHT22;22788;51.434;6.786;2024-03-06T01:50:01;8.60;99.90
36856;DHT22;22788;51.434;6.786;2024-03-06T01:52:27;8.60;99.90
36856;DHT22;22788;51.434;6.786;2024-03-06T01:54:54;8.60;99.90
36856;DHT22;22788;51.434;6.786;2024-03-06T01:57:20;8.60;99.90
36856;DHT22;22788;51.434;6.786;2024-03-06T01:59:46;8.50;99.90
36856;DHT22;22788;51.434;6.786;2024-03-06T02:02:11;8.50;99.90
36856;DHT22;22788;51.434;6.786;2024-03-06T02:04:37;8.50;99.90
36856;DHT22;22788;51.434;6.786;2024-03-06T02:07:04;8.50;99.90
36856;DHT22;22788;51.434;6.786;2024-03-06T02:09:33;8.70;99.90
36856;DHT22;22788;51.434;6.786;2024-03-06T02:12:00;8.60;99.90
36856;DHT22;22788;51.434;6.786;2024-03-06T02:14:26;8.50;99.90
36856;DHT22;22788;51.434;6.786;2024-03-06T02:16:51;8.50;99.90
36856;DHT22;22788;51.434;6.786;2024-03-06T02:19:17;8.40;99.90
36856;DHT22;22788;51.434;6.786;2024-03-06T02:21:44;8.40;99.90
36856;DHT22;22788;51.434;6.786;2024-03-06T02:24:10;8.50;99.90
36856;DHT22;22788;51.434;6.786;2024-03-06T02:26:35;8.40;99.90
36856;DHT22;22788;51.434;6.786;2024-03-06T02:29:01;8.40;99.90
36856;DHT22;22788;51.434;6.786;2024-03-06T02:31:26;8.40;99.90
36856;DHT22;22788;51.434;6.786;2024-03-06T02:33:52;8.50;99.90
36856;DHT22;22788;51.434;6.786;2024-03-06T02:36:18;8.40;99.90
36856;DHT22;22788;51.434;6.786;2024-03-06T02:38:45;8.40;99.90
36856;DHT22;22788;51.434;6.786;2024-03-06T02:41:11;8.50;99.90
36856;DHT22;22788;51.434;6.786;2024-03-06T02:43:37;8.50;99.90
36856;DHT22;22788;51.434;6.786;2024-03-06T02:46:03;8.50;99.90
36856;DHT22;22788;51.434;6.786;2024-03-06T02:48:28;8.50;99.90
36856;DHT22;22788;51.434;6.786;2024-03-06T02:50:54;8.40;99.90
36856;DHT22;22788;51.434;6.786;2024-03-06T02:53:20;8.50;99.90
36856;DHT22;22788;51.434;6.786;2024-03-06T02:55:47;8.40;99.90
36856;DHT22;22788;51.434;6.786;2024-03-06T02:58:12;8.40;99.90
36856;DHT22;22788;51.434;6.786;2024-03-06T03:00:39;8.40;99.90
36856;DHT22;22788;51.434;6.786;2024-03-06T03:03:05;8.40;99.90
36856;DHT22;22788;51.434;6.786;2024-03-06T03:05:30;8.40;99.90
36856;DHT22;22788;51.434;6.786;2024-03-06T03:07:56;8.40;99.90
36856;DHT22;22788;51.434;6.786;2024-03-06T03:10:21;8.40;99.90
36856;DHT22;22788;51.434;6.786;2024-03-06T03:12:48;8.40;99.90
36856;DHT22;22788;51.434;6.786;2024-03-06T03:15:14;8.40;99.90
36856;DHT22;22788;51.434;6.786;2024-03-06T03:17:39;8.30;99.90
36856;DHT22;22788;51.434;6.786;2024-03-06T03:20:06;8.40;99.90
36856;DHT22;22788;51.434;6.786;2024-03-06T03:22:32;8.30;99.90
36856;DHT22;22788;51.434;6.786;2024-03-06T03:24:57;8.30;99.90
36856;DHT22;22788;51.434;6.786;2024-03-06T03:27:23;8.30;99.90
36856;DHT22;22788;51.434;6.786;2024-03-06T03:29:50;8.30;99.90
36856;DHT22;22788;51.434;6.786;2024-03-06T03:32:15;8.30;99.90
36856;DHT22;22788;51.434;6.786;2024-03-06T03:34:41;8.30;99.90
36856;DHT22;22788;51.434;6.786;2024-03-06T03:37:06;8.30;99.90
36856;DHT22;22788;51.434;6.786;2024-03-06T03:39:32;8.30;99.90
36856;DHT22;22788;51.434;6.786;2024-03-06T03:41:57;8.30;99.90
36856;DHT22;22788;51.434;6.786;2024-03-06T03:44:23;8.30;99.90
36856;DHT22;22788;51.434;6.786;2024-03-06T03:46:50;8.30;99.90
36856;DHT22;22788;51.434;6.786;2024-03-06T03:49:15;8.30;99.90
36856;DHT22;22788;51.434;6.786;2024-03-06T03:51:41;8.30;99.90
36856;DHT22;22788;51.434;6.786;2024-03-06T03:54:07;8.30;99.90
36856;DHT22;22788;51.434;6.786;2024-03-06T03:56:33;8.30;99.90
36856;DHT22;22788;51.434;6.786;2024-03-06T03:58:58;8.30;99.90
36856;DHT22;22788;51.434;6.786;2024-03-06T04:01:24;8.30;99.90
36856;DHT22;22788;51.434;6.786;2024-03-06T04:03:51;8.30;99.90
36856;DHT22;22788;51.434;6.786;2024-03-06T04:06:17;8.30;99.90
36856;DHT22;22788;51.434;6.786;2024-03-06T04:08:43;8.30;99.90
36856;DHT22;22788;51.434;6.786;2024-03-06T04:11:09;8.20;99.90
36856;DHT22;22788;51.434;6.786;2024-03-06T04:13:36;8.30;99.90
36856;DHT22;22788;51.434;6.786;2024-03-06T04:16:02;8.30;99.90
36856;DHT22;22788;51.434;6.786;2024-03-06T04:18:28;8.20;99.90
36856;DHT22;22788;51.434;6.786;2024-03-06T04:20:55;8.20;99.90
36856;DHT22;22788;51.434;6.786;2024-03-06T04:23:21;8.20;99.90
36856;DHT22;22788;51.434;6.786;2024-03-06T04:25:47;8.20;99.90
36856;DHT22;22788;51.434;6.786;2024-03-06T04:28:12;8.20;99.90
36856;DHT22;22788;51.434;6.786;2024-03-06T04:30:38;8.20;99.90
36856;DHT22;22788;51.434;6.786;2024-03-06T04:33:03;8.20;99.90
36856;DHT22;22788;51.434;6.786;2024-03-06T04:35:29;8.20;99.90
36856;DHT22;22788;51.434;6.786;2024-03-06T04:37:56;8.20;99.90
36856;DHT22;22788;51.434;6.786;2024-03-06T04:40:22;8.20;99.90
36856;DHT22;22788;51.434;6.786;2024-03-06T04:42:48;8.20;99.90
36856;DHT22;22788;51.434;6.786;2024-03-06T04:45:15;8.20;99.90
36856;DHT22;22788;51.434;6.786;2024-03-06T04:47:41;8.20;99.90
36856;DHT22;22788;51.434;6.786;2024-03-06T04:50:08;8.20;99.90
36856;DHT22;22788;51.434;6.786;2024-03-06T04:52:35;8.20;99.90
36856;DHT22;22788;51.434;6.786;2024-03-06T04:55:02;8.10;99.90
36856;DHT22;22788;51.434;6.786;2024-03-06T04:57:28;8.10;99.90
36856;DHT22;22788;51.434;6.786;2024-03-06T04:59:53;8.10;99.90
36856;DHT22;22788;51.434;6.786;2024-03-06T05:02:19;8.10;99.90
36856;DHT22;22788;51.434;6.786;2024-03-06T05:04:44;8.10;99.90
36856;DHT22;22788;51.434;6.786;2024-03-06T05:07:10;8.10;99.90
36856;DHT22;22788;51.434;6.786;2024-03-06T05:09:35;8.00;99.90
36856;DHT22;22788;51.434;6.786;2024-03-06T05:12:03;8.10;99.90
36856;DHT22;22788;51.434;6.786;2024-03-06T05:14:28;8.00;99.90
36856;DHT22;22788;51.434;6.786;2024-03-06T05:16:54;8.00;99.90
36856;DHT22;22788;51.434;6.786;2024-03-06T05:19:19;8.00;99.90
36856;DHT22;22788;51.434;6.786;2024-03-06T05:21:45;8.00;99.90
36856;DHT22;22788;51.434;6.786;2024-03-06T05:24:10;8.00;99.90
36856;DHT22;22788;51.434;6.786;2024-03-06T05:26:36;8.00;99.90
36856;DHT22;22788;51.434;6.786;2024-03-06T05:29:03;8.00;99.90
36856;DHT22;22788;51.434;6.786;2024-03-06T05:31:28;8.00;99.90
36856;DHT22;22788;51.434;6.786;2024-03-06T05:33:54;8.00;99.90
36856;DHT22;22788;51.434;6.786;2024-03-06T05:36:20;8.00;99.90
36856;DHT22;22788;51.434;6.786;2024-03-06T05:38:45;8.10;99.90
36856;DHT22;22788;51.434;6.786;2024-03-06T05:41:11;8.10;99.90
36856;DHT22;22788;51.434;6.786;2024-03-06T05:43:36;8.00;99.90
36856;DHT22;22788;51.434;6.786;2024-03-06T05:46:03;7.90;99.90
36856;DHT22;22788;51.434;6.786;2024-03-06T05:48:29;8.00;99.90
36856;DHT22;22788;51.434;6.786;2024-03-06T05:50:55;8.00;99.90
36856;DHT22;22788;51.434;6.786;2024-03-06T05:53:20;8.00;99.90
36856;DHT22;22788;51.434;6.786;2024-03-06T05:55:46;7.90;99.90
36856;DHT22;22788;51.434;6.786;2024-03-06T05:58:11;8.00;99.90
36856;DHT22;22788;51.434;6.786;2024-03-06T06:00:37;8.00;99.90
36856;DHT22;22788;51.434;6.786;2024-03-06T06:03:04;8.00;99.90
36856;DHT22;22788;51.434;6.786;2024-03-06T06:05:30;7.90;99.90
36856;DHT22;22788;51.434;6.786;2024-03-06T06:07:55;7.90;99.90
36856;DHT22;22788;51.434;6.786;2024-03-06T06:10:21;7.90;99.90
36856;DHT22;22788;51.434;6.786;2024-03-06T06:12:46;7.90;99.90
36856;DHT22;22788;51.434;6.786;2024-03-06T06:15:12;7.90;99.90
36856;DHT22;22788;51.434;6.786;2024-03-06T06:17:37;7.80;99.90
36856;DHT22;22788;51.434;6.786;2024-03-06T06:20:06;7.90;99.90
36856;DHT22;22788;51.434;6.786;2024-03-06T06:22:32;7.90;99.90
36856;DHT22;22788;51.434;6.786;2024-03-06T06:24:57;7.90;99.90
36856;DHT22;22788;51.434;6.786;2024-03-06T06:27:23;7.90;99.90
36856;DHT22;22788;51.434;6.786;2024-03-06T06:29:48;7.80;99.90
36856;DHT22;22788;51.434;6.786;2024-03-06T06:32:14;7.90;99.90
36856;DHT22;22788;51.434;6.786;2024-03-06T06:34:39;7.90;99.90
36856;DHT22;22788;51.434;6.786;2024-03-06T06:37:06;7.90;99.90
36856;DHT22;22788;51.434;6.786;2024-03-06T06:39:32;7.90;99.90
36856;DHT22;22788;51.434;6.786;2024-03-06T06:41:57;7.90;99.90
36856;DHT22;22788;51.434;6.786;2024-03-06T06:44:23;7.90;99.90
36856;DHT22;22788;51.434;6.786;2024-03-06T06:46:48;7.90;99.90
36856;DHT22;22788;51.434;6.786;2024-03-06T06:49:14;7.90;99.90
36856;DHT22;22788;51.434;6.786;2024-03-06T06:51:40;7.80;99.90
36856;DHT22;22788;51.434;6.786;2024-03-06T06:54:06;7.80;99.90
36856;DHT22;22788;51.434;6.786;2024-03-06T06:56:32;7.90;99.90
36856;DHT22;22788;51.434;6.786;2024-03-06T06:58:58;7.80;99.90
36856;DHT22;22788;51.434;6.786;2024-03-06T07:01:23;7.80;99.90
36856;DHT22;22788;51.434;6.786;2024-03-06T07:03:49;7.80;99.90
36856;DHT22;22788;51.434;6.786;2024-03-06T07:06:14;7.80;99.90
36856;DHT22;22788;51.434;6.786;2024-03-06T07:08:40;7.80;99.90
36856;DHT22;22788;51.434;6.786;2024-03-06T07:11:07;7.70;99.90
36856;DHT22;22788;51.434;6.786;2024-03-06T07:13:32;7.80;99.90
36856;DHT22;22788;51.434;6.786;2024-03-06T07:15:58;7.80;99.90
36856;DHT22;22788;51.434;6.786;2024-03-06T07:18:23;7.80;99.90
36856;DHT22;22788;51.434;6.786;2024-03-06T07:20:49;7.80;99.90
36856;DHT22;22788;51.434;6.786;2024-03-06T07:23:14;7.80;99.90
36856;DHT22;22788;51.434;6.786;2024-03-06T07:25:40;7.90;99.90
36856;DHT22;22788;51.434;6.786;2024-03-06T07:28:07;7.90;99.90
36856;DHT22;22788;51.434;6.786;2024-03-06T07:30:32;7.80;99.90
36856;DHT22;22788;51.434;6.786;2024-03-06T07:32:58;7.80;99.90
36856;DHT22;22788;51.434;6.786;2024-03-06T07:35:23;7.80;99.90
36856;DHT22;22788;51.434;6.786;2024-03-06T07:37:49;7.80;99.90
36856;DHT22;22788;51.434;6.786;2024-03-06T07:40:15;7.80;99.90
36856;DHT22;22788;51.434;6.786;2024-03-06T07:42:40;7.80;99.90
36856;DHT22;22788;51.434;6.786;2024-03-06T07:45:08;7.80;99.90
36856;DHT22;22788;51.434;6.786;2024-03-06T07:47:34;7.80;99.90
36856;DHT22;22788;51.434;6.786;2024-03-06T07:49:59;7.80;99.90
36856;DHT22;22788;51.434;6.786;2024-03-06T07:52:25;7.80;99.90
36856;DHT22;22788;51.434;6.786;2024-03-06T07:54:50;7.80;99.90
36856;DHT22;22788;51.434;6.786;2024-03-06T07:57:16;7.80;99.90
36856;DHT22;22788;51.434;6.786;2024-03-06T07:59:41;7.80;99.90
36856;DHT22;22788;51.434;6.786;2024-03-06T08:02:08;7.80;99.90
36856;DHT22;22788;51.434;6.786;2024-03-06T08:04:34;7.80;99.90
36856;DHT22;22788;51.434;6.786;2024-03-06T08:06:59;7.80;99.90
36856;DHT22;22788;51.434;6.786;2024-03-06T08:09:25;7.80;99.90
36856;DHT22;22788;51.434;6.786;2024-03-06T08:11:51;7.90;99.90
36856;DHT22;22788;51.434;6.786;2024-03-06T08:14:16;7.80;99.90
36856;DHT22;22788;51.434;6.786;2024-03-06T08:16:42;7.90;99.90
36856;DHT22;22788;51.434;6.786;2024-03-06T08:19:09;7.90;99.90
36856;DHT22;22788;51.434;6.786;2024-03-06T08:21:34;7.90;99.90
36856;DHT22;22788;51.434;6.786;2024-03-06T08:24:00;7.80;99.90
36856;DHT22;22788;51.434;6.786;2024-03-06T08:26:25;7.80;99.90
36856;DHT22;22788;51.434;6.786;2024-03-06T08:28:51;7.80;99.90
36856;DHT22;22788;51.434;6.786;2024-03-06T08:31:16;7.80;99.90
36856;DHT22;22788;51.434;6.786;2024-03-06T08:33:42;7.80;99.90
36856;DHT22;22788;51.434;6.786;2024-03-06T08:36:09;7.80;99.90
36856;DHT22;22788;51.434;6.786;2024-03-06T08:38:35;7.80;99.90
36856;DHT22;22788;51.434;6.786;2024-03-06T08:41:00;7.80;99.90
36856;DHT22;22788;51.434;6.786;2024-03-06T08:43:26;7.80;99.90
36856;DHT22;22788;51.434;6.786;2024-03-06T08:45:53;7.80;99.90
36856;DHT22;22788;51.434;6.786;2024-03-06T08:48:21;7.70;99.90
36856;DHT22;22788;51.434;6.786;2024-03-06T08:50:47;7.80;99.90
36856;DHT22;22788;51.434;6.786;2024-03-06T08:55:39;7.80;99.90
36856;DHT22;22788;51.434;6.786;2024-03-06T08:58:05;7.80;99.90
36856;DHT22;22788;51.434;6.786;2024-03-06T09:00:31;7.80;99.90
36856;DHT22;22788;51.434;6.786;2024-03-06T09:02:56;7.80;99.90
36856;DHT22;22788;51.434;6.786;2024-03-06T09:05:22;7.90;99.90
36856;DHT22;22788;51.434;6.786;2024-03-06T09:07:47;7.90;99.90
36856;DHT22;22788;51.434;6.786;2024-03-06T09:10:14;8.00;99.90
36856;DHT22;22788;51.434;6.786;2024-03-06T09:12:40;8.00;99.90
36856;DHT22;22788;51.434;6.786;2024-03-06T09:15:06;8.00;99.90
36856;DHT22;22788;51.434;6.786;2024-03-06T09:17:32;7.90;99.90
36856;DHT22;22788;51.434;6.786;2024-03-06T09:19:58;7.90;99.90
36856;DHT22;22788;51.434;6.786;2024-03-06T09:22:23;7.80;99.90
36856;DHT22;22788;51.434;6.786;2024-03-06T09:24:49;7.80;99.90
36856;DHT22;22788;51.434;6.786;2024-03-06T09:27:16;7.80;99.90
36856;DHT22;22788;51.434;6.786;2024-03-06T09:29:42;7.80;99.90
36856;DHT22;22788;51.434;6.786;2024-03-06T09:32:07;7.80;99.90
36856;DHT22;22788;51.434;6.786;2024-03-06T09:34:53;7.90;99.90
36856;DHT22;22788;51.434;6.786;2024-03-06T09:37:19;7.90;99.90
36856;DHT22;22788;51.434;6.786;2024-03-06T09:39:44;8.00;99.90
36856;DHT22;22788;51.434;6.786;2024-03-06T09:44:37;8.10;99.90
36856;DHT22;22788;51.434;6.786;2024-03-06T09:47:03;8.10;99.90
36856;DHT22;22788;51.434;6.786;2024-03-06T09:49:31;8.00;99.90
36856;DHT22;22788;51.434;6.786;2024-03-06T09:51:56;8.10;99.90
36856;DHT22;22788;51.434;6.786;2024-03-06T09:54:23;8.10;99.90
36856;DHT22;22788;51.434;6.786;2024-03-06T09:56:50;8.10;99.90
36856;DHT22;22788;51.434;6.786;2024-03-06T09:59:16;8.20;99.90
36856;DHT22;22788;51.434;6.786;2024-03-06T10:01:48;8.20;99.90
36856;DHT22;22788;51.434;6.786;2024-03-06T10:04:18;8.20;99.90
36856;DHT22;22788;51.434;6.786;2024-03-06T10:06:44;8.20;99.90
36856;DHT22;22788;51.434;6.786;2024-03-06T10:09:11;8.20;99.90
36856;DHT22;22788;51.434;6.786;2024-03-06T10:11:39;8.30;99.90
36856;DHT22;22788;51.434;6.786;2024-03-06T10:14:04;8.20;99.90
36856;DHT22;22788;51.434;6.786;2024-03-06T10:16:30;8.20;99.90
36856;DHT22;22788;51.434;6.786;2024-03-06T10:18:57;8.20;99.90
36856;DHT22;22788;51.434;6.786;2024-03-06T10:21:29;9.00;99.90
36856;DHT22;22788;51.434;6.786;2024-03-06T10:23:57;8.30;99.90
36856;DHT22;22788;51.434;6.786;2024-03-06T10:26:25;8.30;99.90
36856;DHT22;22788;51.434;6.786;2024-03-06T10:28:50;8.30;99.90
36856;DHT22;22788;51.434;6.786;2024-03-06T10:31:26;8.20;99.90
36856;DHT22;22788;51.434;6.786;2024-03-06T10:33:52;8.20;99.90
36856;DHT22;22788;51.434;6.786;2024-03-06T10:36:19;8.20;99.90
36856;DHT22;22788;51.434;6.786;2024-03-06T10:38:47;8.20;99.90
36856;DHT22;22788;51.434;6.786;2024-03-06T10:41:18;8.20;99.90
36856;DHT22;22788;51.434;6.786;2024-03-06T10:43:45;8.30;99.90
36856;DHT22;22788;51.434;6.786;2024-03-06T10:46:13;8.30;99.90
36856;DHT22;22788;51.434;6.786;2024-03-06T10:48:41;8.30;99.90
36856;DHT22;22788;51.434;6.786;2024-03-06T10:51:09;8.30;99.90
36856;DHT22;22788;51.434;6.786;2024-03-06T10:53:37;8.30;99.90
36856;DHT22;22788;51.434;6.786;2024-03-06T10:56:05;8.40;99.90
36856;DHT22;22788;51.434;6.786;2024-03-06T10:58:34;8.40;99.90
36856;DHT22;22788;51.434;6.786;2024-03-06T11:01:00;8.40;99.90
36856;DHT22;22788;51.434;6.786;2024-03-06T11:03:27;8.40;99.90
36856;DHT22;22788;51.434;6.786;2024-03-06T11:05:53;8.50;99.90
36856;DHT22;22788;51.434;6.786;2024-03-06T11:08:18;8.50;99.90
36856;DHT22;22788;51.434;6.786;2024-03-06T11:10:46;8.60;99.90
36856;DHT22;22788;51.434;6.786;2024-03-06T11:13:22;8.60;99.90
36856;DHT22;22788;51.434;6.786;2024-03-06T11:15:48;8.60;99.90
36856;DHT22;22788;51.434;6.786;2024-03-06T11:18:44;8.60;99.90
36856;DHT22;22788;51.434;6.786;2024-03-06T11:21:29;8.60;99.90
36856;DHT22;22788;51.434;6.786;2024-03-06T11:24:18;8.70;99.90
36856;DHT22;22788;51.434;6.786;2024-03-06T11:26:46;8.70;99.90
36856;DHT22;22788;51.434;6.786;2024-03-06T11:29:13;8.80;99.90
36856;DHT22;22788;51.434;6.786;2024-03-06T11:31:38;8.70;99.90
36856;DHT22;22788;51.434;6.786;2024-03-06T11:34:04;8.70;99.90
36856;DHT22;22788;51.434;6.786;2024-03-06T11:36:30;8.70;99.90
36856;DHT22;22788;51.434;6.786;2024-03-06T11:38:57;8.70;99.90
36856;DHT22;22788;51.434;6.786;2024-03-06T11:41:27;8.70;99.90
36856;DHT22;22788;51.434;6.786;2024-03-06T11:43:55;8.70;99.90
36856;DHT22;22788;51.434;6.786;2024-03-06T11:51:18;8.70;99.90
36856;DHT22;22788;51.434;6.786;2024-03-06T11:56:09;8.80;99.90
36856;DHT22;22788;51.434;6.786;2024-03-06T11:58:35;8.70;99.90
36856;DHT22;22788;51.434;6.786;2024-03-06T12:01:02;8.70;99.90
36856;DHT22;22788;51.434;6.786;2024-03-06T12:03:28;8.70;99.90
36856;DHT22;22788;51.434;6.786;2024-03-06T12:05:53;8.70;99.90
36856;DHT22;22788;51.434;6.786;2024-03-06T12:08:19;8.70;99.90
36856;DHT22;22788;51.434;6.786;2024-03-06T12:10:45;8.60;99.90
36856;DHT22;22788;51.434;6.786;2024-03-06T12:13:11;8.60;99.90
36856;DHT22;22788;51.434;6.786;2024-03-06T12:15:37;8.70;99.90
36856;DHT22;22788;51.434;6.786;2024-03-06T12:18:04;8.70;99.90
36856;DHT22;22788;51.434;6.786;2024-03-06T12:20:30;8.60;99.90
36856;DHT22;22788;51.434;6.786;2024-03-06T12:22:57;8.70;99.90
36856;DHT22;22788;51.434;6.786;2024-03-06T12:25:24;8.70;99.90
36856;DHT22;22788;51.434;6.786;2024-03-06T12:27:50;8.70;99.90
36856;DHT22;22788;51.434;6.786;2024-03-06T12:30:17;8.80;99.90
36856;DHT22;22788;51.434;6.786;2024-03-06T12:32:42;8.70;99.90
36856;DHT22;22788;51.434;6.786;2024-03-06T12:35:10;8.80;99.90
36856;DHT22;22788;51.434;6.786;2024-03-06T12:37:36;8.80;99.90
36856;DHT22;22788;51.434;6.786;2024-03-06T12:40:02;8.80;99.90
36856;DHT22;22788;51.434;6.786;2024-03-06T12:42:27;8.80;99.90
36856;DHT22;22788;51.434;6.786;2024-03-06T12:44:53;8.90;99.90
36856;DHT22;22788;51.434;6.786;2024-03-06T12:47:18;9.00;99.90
36856;DHT22;22788;51.434;6.786;2024-03-06T12:49:44;9.10;99.90
36856;DHT22;22788;51.434;6.786;2024-03-06T12:52:15;9.10;99.90
36856;DHT22;22788;51.434;6.786;2024-03-06T12:54:41;9.10;99.90
36856;DHT22;22788;51.434;6.786;2024-03-06T12:57:06;9.10;99.90
36856;DHT22;22788;51.434;6.786;2024-03-06T12:59:32;9.20;99.90
36856;DHT22;22788;51.434;6.786;2024-03-06T13:01:57;9.30;99.90
36856;DHT22;22788;51.434;6.786;2024-03-06T13:04:23;9.30;99.90
36856;DHT22;22788;51.434;6.786;2024-03-06T13:06:48;9.30;99.90
36856;DHT22;22788;51.434;6.786;2024-03-06T13:09:16;9.30;99.90
36856;DHT22;22788;51.434;6.786;2024-03-06T13:11:41;9.30;99.90
36856;DHT22;22788;51.434;6.786;2024-03-06T13:14:07;9.40;99.90
36856;DHT22;22788;51.434;6.786;2024-03-06T13:16:32;9.40;99.90
36856;DHT22;22788;51.434;6.786;2024-03-06T13:18:58;9.30;99.90
36856;DHT22;22788;51.434;6.786;2024-03-06T13:21:24;9.30;99.90
36856;DHT22;22788;51.434;6.786;2024-03-06T13:23:49;9.30;99.90
36856;DHT22;22788;51.434;6.786;2024-03-06T13:26:16;9.30;99.90
36856;DHT22;22788;51.434;6.786;2024-03-06T13:28:42;9.30;99.90
36856;DHT22;22788;51.434;6.786;2024-03-06T13:31:07;9.40;99.90
36856;DHT22;22788;51.434;6.786;2024-03-06T13:33:33;9.40;99.90
36856;DHT22;22788;51.434;6.786;2024-03-06T13:35:59;9.40;99.90
36856;DHT22;22788;51.434;6.786;2024-03-06T13:38:24;9.40;99.90
36856;DHT22;22788;51.434;6.786;2024-03-06T13:40:50;9.30;99.90
36856;DHT22;22788;51.434;6.786;2024-03-06T13:43:17;9.30;99.90
36856;DHT22;22788;51.434;6.786;2024-03-06T13:45:48;9.30;99.90
36856;DHT22;22788;51.434;6.786;2024-03-06T13:48:14;9.30;99.90
36856;DHT22;22788;51.434;6.786;2024-03-06T13:50:40;9.30;99.90
36856;DHT22;22788;51.434;6.786;2024-03-06T13:53:06;9.40;99.90
36856;DHT22;22788;51.434;6.786;2024-03-06T13:55:31;9.50;99.90
36856;DHT22;22788;51.434;6.786;2024-03-06T13:57:57;9.60;99.90
36856;DHT22;22788;51.434;6.786;2024-03-06T14:00:24;9.60;99.90
36856;DHT22;22788;51.434;6.786;2024-03-06T14:02:49;9.60;99.90
36856;DHT22;22788;51.434;6.786;2024-03-06T14:05:15;9.70;99.90
36856;DHT22;22788;51.434;6.786;2024-03-06T14:07:40;9.70;99.90
36856;DHT22;22788;51.434;6.786;2024-03-06T14:10:07;9.70;99.90
36856;DHT22;22788;51.434;6.786;2024-03-06T14:12:33;9.70;99.90
36856;DHT22;22788;51.434;6.786;2024-03-06T14:14:58;9.80;99.90
36856;DHT22;22788;51.434;6.786;2024-03-06T14:17:25;9.70;99.90
36856;DHT22;22788;51.434;6.786;2024-03-06T14:19:51;9.60;99.90
36856;DHT22;22788;51.434;6.786;2024-03-06T14:22:16;9.60;99.90
36856;DHT22;22788;51.434;6.786;2024-03-06T14:24:42;9.60;99.90
36856;DHT22;22788;51.434;6.786;2024-03-06T14:27:07;9.60;99.90
36856;DHT22;22788;51.434;6.786;2024-03-06T14:29:34;9.70;99.90
36856;DHT22;22788;51.434;6.786;2024-03-06T14:31:59;9.70;99.90
36856;DHT22;22788;51.434;6.786;2024-03-06T14:34:27;9.60;99.90
36856;DHT22;22788;51.434;6.786;2024-03-06T14:36:52;9.70;99.90
36856;DHT22;22788;51.434;6.786;2024-03-06T14:39:18;9.60;99.90
36856;DHT22;22788;51.434;6.786;2024-03-06T14:41:43;9.60;99.90
36856;DHT22;22788;51.434;6.786;2024-03-06T14:44:09;9.60;99.90
36856;DHT22;22788;51.434;6.786;2024-03-06T14:46:35;9.60;99.90
36856;DHT22;22788;51.434;6.786;2024-03-06T14:49:00;9.60;99.90
36856;DHT22;22788;51.434;6.786;2024-03-06T14:51:27;9.60;99.90
36856;DHT22;22788;51.434;6.786;2024-03-06T14:53:53;9.70;99.90
36856;DHT22;22788;51.434;6.786;2024-03-06T14:56:18;9.70;99.90
36856;DHT22;22788;51.434;6.786;2024-03-06T14:58:44;9.70;99.90
36856;DHT22;22788;51.434;6.786;2024-03-06T15:01:09;9.80;99.90
36856;DHT22;22788;51.434;6.786;2024-03-06T15:03:35;9.70;99.90
36856;DHT22;22788;51.434;6.786;2024-03-06T15:06:00;9.80;99.90
36856;DHT22;22788;51.434;6.786;2024-03-06T15:08:27;9.80;99.90
36856;DHT22;22788;51.434;6.786;2024-03-06T15:10:53;9.80;99.90
36856;DHT22;22788;51.434;6.786;2024-03-06T15:13:18;9.70;99.90
36856;DHT22;22788;51.434;6.786;2024-03-06T15:15:44;9.70;99.90
36856;DHT22;22788;51.434;6.786;2024-03-06T15:18:09;9.60;99.90
36856;DHT22;22788;51.434;6.786;2024-03-06T15:20:35;9.60;99.90
36856;DHT22;22788;51.434;6.786;2024-03-06T15:23:01;9.60;99.90
36856;DHT22;22788;51.434;6.786;2024-03-06T15:25:27;9.70;99.90
36856;DHT22;22788;51.434;6.786;2024-03-06T15:27:53;9.70;99.90
36856;DHT22;22788;51.434;6.786;2024-03-06T15:30:19;9.60;99.90
36856;DHT22;22788;51.434;6.786;2024-03-06T15:32:44;9.60;99.90
36856;DHT22;22788;51.434;6.786;2024-03-06T15:35:10;9.60;99.90
36856;DHT22;22788;51.434;6.786;2024-03-06T15:37:35;9.60;99.90
36856;DHT22;22788;51.434;6.786;2024-03-06T15:40:01;9.60;99.90
36856;DHT22;22788;51.434;6.786;2024-03-06T15:42:28;9.60;99.90
36856;DHT22;22788;51.434;6.786;2024-03-06T15:44:53;9.50;99.90
36856;DHT22;22788;51.434;6.786;2024-03-06T15:47:20;9.60;99.90
36856;DHT22;22788;51.434;6.786;2024-03-06T15:49:46;9.60;99.90